createdAt,value
2018-05-07T00:00:13.086Z,68.90
2018-05-07T00:02:42.361Z,69.10
2018-05-07T00:05:12.445Z,69.60
2018-05-07T00:07:41.676Z,69.50
2018-05-07T00:10:10.952Z,69.30
2018-05-07T00:12:40.241Z,69.60
2018-05-07T00:15:09.500Z,69.80
2018-05-07T00:17:38.788Z,69.80
2018-05-07T00:20:08.103Z,70.30
2018-05-07T00:22:37.380Z,70.40
2018-05-07T00:25:07.390Z,70.80
2018-05-07T00:27:37.468Z,70.90
2018-05-07T00:30:06.733Z,70.90
2018-05-07T00:32:35.997Z,70.80
2018-05-07T00:35:05.269Z,71.80
2018-05-07T00:37:34.527Z,72.40
2018-05-07T00:40:03.821Z,72.70
2018-05-07T00:42:33.849Z,72.40
2018-05-07T00:45:03.128Z,72.30
2018-05-07T00:47:33.122Z,73.20
2018-05-07T00:50:02.391Z,72.40
2018-05-07T00:52:31.654Z,72.10
2018-05-07T00:55:18.878Z,72.50
2018-05-07T00:57:48.150Z,72.80
2018-05-07T01:00:17.403Z,72.50
2018-05-07T01:02:46.677Z,72.60
2018-05-07T01:05:16.705Z,73.10
2018-05-07T01:07:46.889Z,73.10
2018-05-07T01:10:16.116Z,73.30
2018-05-07T01:12:45.437Z,73.20
2018-05-07T01:15:15.428Z,74.00
2018-05-07T01:17:45.495Z,73.90
2018-05-07T01:20:14.753Z,73.90
2018-05-07T01:22:44.028Z,74.20
2018-05-07T01:25:13.282Z,74.40
2018-05-07T01:27:42.562Z,74.80
2018-05-07T01:30:11.825Z,75.20
2018-05-07T01:32:41.152Z,75.50
2018-05-07T01:35:10.380Z,75.90
2018-05-07T01:37:39.644Z,76.10
2018-05-07T01:40:08.960Z,76.30
2018-05-07T01:42:38.220Z,76.20
2018-05-07T01:45:07.477Z,76.70
2018-05-07T01:47:36.730Z,77.00
2018-05-07T01:50:06.748Z,77.30
2018-05-07T01:52:36.777Z,77.20
2018-05-07T01:55:06.809Z,77.50
2018-05-07T01:57:36.069Z,77.40
2018-05-07T02:00:05.343Z,77.50
2018-05-07T02:02:34.604Z,77.60
2018-05-07T02:05:03.866Z,77.20
2018-05-07T02:07:33.121Z,78.70
2018-05-07T02:10:02.372Z,78.60
2018-05-07T02:12:32.868Z,78.20
2018-05-07T02:15:02.098Z,78.80
2018-05-07T02:17:31.395Z,78.70
2018-05-07T02:20:00.659Z,79.50
2018-05-07T02:22:29.927Z,79.50
2018-05-07T02:24:59.212Z,79.70
2018-05-07T02:27:29.249Z,78.60
2018-05-07T02:29:58.523Z,78.60
2018-05-07T02:32:28.611Z,79.30
2018-05-07T02:34:57.925Z,79.20
2018-05-07T02:37:27.214Z,79.80
2018-05-07T02:39:56.492Z,79.80
2018-05-07T02:42:25.790Z,79.60
2018-05-07T02:44:55.080Z,80.20
2018-05-07T02:47:24.371Z,80.30
2018-05-07T02:49:54.427Z,80.50
2018-05-07T02:52:24.283Z,80.50
2018-05-07T02:54:53.585Z,80.60
2018-05-07T02:57:23.914Z,80.70
2018-05-07T02:59:53.988Z,81.50
2018-05-07T03:02:23.308Z,81.50
2018-05-07T03:04:52.585Z,81.60
2018-05-07T03:07:21.865Z,81.40
2018-05-07T03:09:51.169Z,82.20
2018-05-07T03:12:20.442Z,82.30
2018-05-07T03:14:50.545Z,82.50
2018-05-07T03:17:20.633Z,81.30
2018-05-07T03:19:49.988Z,81.20
2018-05-07T03:22:19.290Z,82.80
2018-05-07T03:24:49.398Z,83.10
2018-05-07T03:27:19.438Z,83.90
2018-05-07T03:29:48.759Z,83.80
2018-05-07T03:32:18.032Z,83.80
2018-05-07T03:34:47.329Z,84.00
2018-05-07T03:37:17.416Z,84.80
2018-05-07T03:39:46.697Z,84.80
2018-05-07T03:42:15.996Z,84.80
2018-05-07T03:44:45.294Z,84.90
2018-05-07T03:47:14.590Z,84.60
2018-05-07T03:49:43.876Z,84.80
2018-05-07T03:52:13.164Z,84.80
2018-05-07T03:54:42.479Z,85.20
2018-05-07T03:57:11.814Z,85.60
2018-05-07T03:59:41.219Z,85.20
2018-05-07T04:02:10.414Z,85.30
2018-05-07T04:04:39.762Z,86.00
2018-05-07T04:07:09.065Z,85.80
2018-05-07T04:09:38.361Z,85.80
2018-05-07T04:12:08.418Z,86.00
2018-05-07T04:14:37.733Z,86.00
2018-05-07T04:17:24.841Z,86.40
2018-05-07T04:20:11.868Z,86.30
2018-05-07T04:22:58.966Z,86.80
2018-05-07T04:25:28.262Z,87.00
2018-05-07T04:27:57.545Z,87.00
2018-05-07T04:30:26.833Z,87.10
2018-05-07T04:32:56.128Z,87.20
2018-05-07T04:35:25.421Z,87.40
2018-05-07T04:37:55.485Z,87.80
2018-05-07T04:40:24.811Z,87.80
2018-05-07T04:42:54.111Z,87.60
2018-05-07T04:45:23.387Z,88.00
2018-05-07T04:47:52.717Z,88.30
2018-05-07T04:50:22.017Z,87.90
2018-05-07T04:52:51.305Z,87.30
2018-05-07T04:55:20.601Z,85.40
2018-05-07T04:57:49.907Z,82.30
2018-05-07T05:00:19.190Z,80.40
2018-05-07T05:02:48.479Z,77.20
2018-05-07T05:05:17.799Z,75.90
2018-05-07T05:07:47.866Z,71.50
2018-05-07T05:10:17.170Z,71.50
2018-05-07T05:12:47.233Z,69.10
2018-05-07T05:15:16.534Z,69.10
2018-05-07T05:17:45.838Z,67.90
2018-05-07T05:20:15.139Z,66.60
2018-05-07T05:22:44.428Z,65.60
2018-05-07T05:25:13.735Z,65.20
2018-05-07T05:27:43.020Z,64.70
2018-05-07T05:30:12.300Z,63.90
2018-05-07T05:32:41.586Z,62.70
2018-05-07T05:35:11.664Z,60.20
2018-05-07T05:37:40.971Z,60.10
2018-05-07T05:40:10.269Z,61.20
2018-05-07T05:42:39.584Z,60.10
2018-05-07T05:45:08.886Z,58.60
2018-05-07T05:47:38.180Z,57.90
2018-05-07T05:50:07.624Z,58.00
2018-05-07T05:52:36.789Z,55.80
2018-05-07T05:55:06.062Z,55.20
2018-05-07T05:57:35.398Z,54.80
2018-05-07T06:00:04.678Z,54.70
2018-05-07T06:02:33.978Z,54.80
2018-05-07T06:05:03.267Z,55.10
2018-05-07T06:07:32.587Z,54.40
2018-05-07T06:10:01.863Z,54.60
2018-05-07T06:12:31.160Z,55.30
2018-05-07T06:15:00.645Z,56.00
2018-05-07T06:17:33.242Z,54.70
2018-05-07T06:20:03.471Z,51.40
2018-05-07T06:22:32.790Z,53.10
2018-05-07T06:25:02.078Z,53.50
2018-05-07T06:27:31.359Z,53.50
2018-05-07T06:30:00.663Z,52.60
2018-05-07T06:32:29.945Z,54.00
2018-05-07T06:34:59.241Z,54.00
2018-05-07T06:37:28.528Z,54.10
2018-05-07T06:39:57.833Z,54.70
2018-05-07T06:42:27.163Z,55.00
2018-05-07T06:44:56.511Z,55.00
2018-05-07T06:47:26.605Z,58.20
2018-05-07T06:49:55.939Z,57.60
2018-05-07T06:52:25.997Z,57.90
2018-05-07T06:54:55.293Z,57.90
2018-05-07T06:57:24.614Z,57.90
2018-05-07T06:59:53.917Z,59.10
2018-05-07T07:02:23.339Z,57.50
2018-05-07T07:04:52.505Z,58.60
2018-05-07T07:07:21.844Z,58.40
2018-05-07T07:09:51.097Z,57.50
2018-05-07T07:12:20.390Z,58.30
2018-05-07T07:14:49.681Z,57.50
2018-05-07T07:17:18.980Z,58.40
2018-05-07T07:19:48.255Z,57.80
2018-05-07T07:22:18.325Z,57.80
2018-05-07T07:24:47.613Z,57.80
2018-05-07T07:27:16.923Z,57.30
2018-05-07T07:29:46.210Z,56.60
2018-05-07T07:32:15.527Z,57.00
2018-05-07T07:34:44.807Z,57.20
2018-05-07T07:37:14.905Z,57.40
2018-05-07T07:39:44.958Z,57.80
2018-05-07T07:42:14.249Z,57.80
2018-05-07T07:44:43.521Z,57.60
2018-05-07T07:47:13.642Z,57.50
2018-05-07T07:49:42.868Z,57.50
2018-05-07T07:52:12.159Z,57.20
2018-05-07T07:54:41.458Z,56.50
2018-05-07T07:57:10.739Z,57.70
2018-05-07T07:59:40.794Z,57.70
2018-05-07T08:02:10.085Z,57.70
2018-05-07T08:04:39.421Z,60.20
2018-05-07T08:07:08.736Z,59.10
2018-05-07T08:09:38.026Z,58.60
2018-05-07T08:12:07.352Z,57.80
2018-05-07T08:14:36.618Z,58.20
2018-05-07T08:17:05.911Z,59.00
2018-05-07T08:19:36.013Z,59.40
2018-05-07T08:22:05.336Z,59.40
2018-05-07T08:24:34.609Z,58.50
2018-05-07T08:27:03.909Z,58.10
2018-05-07T08:29:33.188Z,58.80
2018-05-07T08:32:03.263Z,59.00
2018-05-07T08:34:32.541Z,58.40
2018-05-07T08:37:01.839Z,59.00
2018-05-07T08:39:31.158Z,58.50
2018-05-07T08:42:01.307Z,58.10
2018-05-07T08:44:30.596Z,59.40
2018-05-07T08:46:59.891Z,59.10
2018-05-07T08:49:29.200Z,59.10
2018-05-07T08:51:58.561Z,57.70
2018-05-07T08:54:27.872Z,57.60
2018-05-07T08:56:57.170Z,58.40
2018-05-07T08:59:26.490Z,57.70
2018-05-07T09:01:55.773Z,57.80
2018-05-07T09:04:25.089Z,57.40
2018-05-07T09:06:54.399Z,56.20
2018-05-07T09:09:23.690Z,56.60
2018-05-07T09:11:53.014Z,56.20
2018-05-07T09:14:22.282Z,56.80
2018-05-07T09:16:51.577Z,55.90
2018-05-07T09:19:20.878Z,56.00
2018-05-07T09:21:50.169Z,55.70
2018-05-07T09:24:19.468Z,55.80
2018-05-07T09:26:48.763Z,55.80
2018-05-07T09:29:18.071Z,54.30
2018-05-07T09:31:47.352Z,54.50
2018-05-07T09:34:16.641Z,54.10
2018-05-07T09:36:45.945Z,54.40
2018-05-07T09:39:15.245Z,54.00
2018-05-07T09:41:44.608Z,54.40
2018-05-07T09:44:13.960Z,53.30
2018-05-07T09:46:43.291Z,52.60
2018-05-07T09:49:12.563Z,53.00
2018-05-07T09:51:41.964Z,53.90
2018-05-07T09:54:11.254Z,54.10
2018-05-07T09:56:55.399Z,55.70
2018-05-07T09:59:24.546Z,53.90
2018-05-07T10:01:53.846Z,54.10
2018-05-07T10:04:23.155Z,54.30
2018-05-07T10:06:52.443Z,53.50
2018-05-07T10:09:21.735Z,53.90
2018-05-07T10:11:51.030Z,54.40
2018-05-07T10:14:20.327Z,52.50
2018-05-07T10:16:49.619Z,53.20
2018-05-07T10:19:18.913Z,51.90
2018-05-07T10:21:48.211Z,52.00
2018-05-07T10:24:17.570Z,52.60
2018-05-07T10:26:46.799Z,50.40
2018-05-07T10:29:16.870Z,50.80
2018-05-07T10:31:46.136Z,50.80
2018-05-07T10:34:15.424Z,51.00
2018-05-07T10:36:44.726Z,50.20
2018-05-07T10:39:14.236Z,49.50
2018-05-07T10:41:43.533Z,50.00
2018-05-07T10:44:12.818Z,50.00
2018-05-07T10:46:42.872Z,49.80
2018-05-07T10:49:12.767Z,49.80
2018-05-07T10:51:42.025Z,49.30
2018-05-07T10:54:11.317Z,50.10
2018-05-07T10:56:40.606Z,51.00
2018-05-07T10:59:09.884Z,49.40
2018-05-07T11:01:39.178Z,49.30
2018-05-07T11:04:08.486Z,48.80
2018-05-07T11:06:37.758Z,50.00
2018-05-07T11:09:07.057Z,48.90
2018-05-07T11:11:37.137Z,49.90
2018-05-07T11:14:06.440Z,49.80
2018-05-07T11:16:35.717Z,47.80
2018-05-07T11:19:05.041Z,47.60
2018-05-07T11:21:34.332Z,48.40
2018-05-07T11:24:03.628Z,49.30
2018-05-07T11:26:32.925Z,48.30
2018-05-07T11:29:02.228Z,48.30
2018-05-07T11:31:31.531Z,46.30
2018-05-07T11:34:00.826Z,45.60
2018-05-07T11:36:30.101Z,45.70
2018-05-07T11:38:59.469Z,46.10
2018-05-07T11:41:28.725Z,45.70
2018-05-07T11:43:58.012Z,45.60
2018-05-07T11:46:27.283Z,44.50
2018-05-07T11:48:56.582Z,44.90
2018-05-07T11:51:25.871Z,44.90
2018-05-07T11:53:55.937Z,44.30
2018-05-07T11:56:25.238Z,44.30
2018-05-07T11:58:54.515Z,44.40
2018-05-07T12:01:23.806Z,44.10
2018-05-07T12:03:53.100Z,44.80
2018-05-07T12:06:23.158Z,43.00
2018-05-07T12:08:52.439Z,43.00
2018-05-07T12:11:21.724Z,44.40
2018-05-07T12:13:51.025Z,44.10
2018-05-07T12:16:20.313Z,44.80
2018-05-07T12:18:50.375Z,43.50
2018-05-07T12:21:19.692Z,43.40
2018-05-07T12:23:48.991Z,43.70
2018-05-07T12:26:18.295Z,42.50
2018-05-07T12:28:48.337Z,41.60
2018-05-07T12:31:17.690Z,41.60
2018-05-07T12:33:47.755Z,41.10
2018-05-07T12:36:17.057Z,41.20
2018-05-07T12:38:46.363Z,42.10
2018-05-07T12:41:15.657Z,41.40
2018-05-07T12:43:44.946Z,42.50
2018-05-07T12:46:14.228Z,41.80
2018-05-07T12:48:43.540Z,41.10
2018-05-07T12:51:12.836Z,42.00
2018-05-07T12:53:42.140Z,41.30
2018-05-07T12:56:11.410Z,40.40
2018-05-07T12:58:40.705Z,40.20
2018-05-07T13:01:10.031Z,41.80
2018-05-07T13:03:40.085Z,40.40
2018-05-07T13:06:10.140Z,40.80
2018-05-07T13:08:39.424Z,40.40
2018-05-07T13:11:08.761Z,42.60
2018-05-07T13:13:38.060Z,41.00
2018-05-07T13:16:07.357Z,40.00
2018-05-07T13:18:36.649Z,41.00
2018-05-07T13:21:05.928Z,40.60
2018-05-07T13:23:35.220Z,42.00
2018-05-07T13:26:05.266Z,40.00
2018-05-07T13:28:34.543Z,40.00
2018-05-07T13:31:03.826Z,40.30
2018-05-07T13:33:33.895Z,39.90
2018-05-07T13:36:03.199Z,39.90
2018-05-07T13:38:32.485Z,40.50
2018-05-07T13:41:01.854Z,40.40
2018-05-07T13:43:31.121Z,40.00
2018-05-07T13:46:00.429Z,40.70
2018-05-07T13:48:29.726Z,41.50
2018-05-07T13:50:59.117Z,40.90
2018-05-07T13:53:28.389Z,42.00
2018-05-07T13:55:57.707Z,41.90
2018-05-07T13:58:26.996Z,41.60
2018-05-07T14:00:56.291Z,41.60
2018-05-07T14:03:25.592Z,41.60
2018-05-07T14:05:54.910Z,42.10
2018-05-07T14:08:24.242Z,42.50
2018-05-07T14:10:53.516Z,41.60
2018-05-07T14:13:22.810Z,40.60
2018-05-07T14:15:52.095Z,41.00
2018-05-07T14:18:21.402Z,40.70
2018-05-07T14:20:50.698Z,40.60
2018-05-07T14:23:19.984Z,40.40
2018-05-07T14:25:49.387Z,41.50
2018-05-07T14:28:18.753Z,40.10
2018-05-07T14:30:48.844Z,40.90
2018-05-07T14:33:18.156Z,41.00
2018-05-07T14:38:23.911Z,39.90
2018-05-07T14:40:53.412Z,40.80
2018-05-07T14:43:22.704Z,39.60
2018-05-07T14:45:52.153Z,39.70
2018-05-07T14:48:21.707Z,39.90
2018-05-07T14:50:51.015Z,40.50
2018-05-07T14:53:20.297Z,40.60
2018-05-07T14:55:49.714Z,41.20
2018-05-07T14:58:18.913Z,41.30
2018-05-07T15:00:48.205Z,41.10
2018-05-07T15:03:17.501Z,41.00
2018-05-07T15:05:46.780Z,41.20
2018-05-07T15:08:16.095Z,40.80
2018-05-07T15:10:45.382Z,40.80
2018-05-07T15:13:15.447Z,39.60
2018-05-07T15:15:44.744Z,39.50
2018-05-07T15:18:14.045Z,39.20
2018-05-07T15:20:43.344Z,39.60
2018-05-07T15:23:12.655Z,40.00
2018-05-07T15:25:41.947Z,39.60
2018-05-07T15:28:11.239Z,39.80
2018-05-07T15:30:40.549Z,39.60
2018-05-07T15:33:09.844Z,39.70
2018-05-07T15:35:39.139Z,40.00
2018-05-07T15:38:08.463Z,39.70
2018-05-07T15:40:37.786Z,39.80
2018-05-07T15:43:07.087Z,40.30
2018-05-07T15:45:37.299Z,40.30
2018-05-07T15:48:06.603Z,40.40
2018-05-07T15:50:35.891Z,40.70
2018-05-07T15:53:05.172Z,40.30
2018-05-07T15:55:34.484Z,40.20
2018-05-07T15:58:04.344Z,40.90
2018-05-07T16:00:33.653Z,40.30
2018-05-07T16:03:03.044Z,40.10
2018-05-07T16:05:32.277Z,40.80
2018-05-07T16:08:01.650Z,41.80
2018-05-07T16:10:31.695Z,41.50
2018-05-07T16:13:01.005Z,41.50
2018-05-07T16:15:30.355Z,41.60
2018-05-07T16:17:59.613Z,41.80
2018-05-07T16:20:28.915Z,41.60
2018-05-07T16:22:58.223Z,41.30
2018-05-07T16:25:27.540Z,42.20
2018-05-07T16:27:56.826Z,41.00
2018-05-07T16:33:02.392Z,41.10
2018-05-07T16:35:31.690Z,41.10
2018-05-07T16:38:00.985Z,40.90
2018-05-07T16:40:30.268Z,40.90
2018-05-07T16:42:59.583Z,41.50
2018-05-07T16:45:28.865Z,41.60
2018-05-07T16:47:58.145Z,42.10
2018-05-07T16:50:27.446Z,42.40
2018-05-07T16:52:57.501Z,42.80
2018-05-07T16:55:26.782Z,42.70
2018-05-07T16:57:56.086Z,42.90
2018-05-07T17:00:25.408Z,42.50
2018-05-07T17:02:54.661Z,43.10
2018-05-07T17:05:23.956Z,42.40
2018-05-07T17:07:54.020Z,41.10
2018-05-07T17:10:23.307Z,41.10
2018-05-07T17:12:52.601Z,40.50
2018-05-07T17:15:21.894Z,41.10
2018-05-07T17:17:51.826Z,40.80
2018-05-07T17:20:21.150Z,41.70
2018-05-07T17:22:50.431Z,41.80
2018-05-07T17:25:19.709Z,41.90
2018-05-07T17:27:50.002Z,41.80
2018-05-07T17:30:19.329Z,41.60
2018-05-07T17:32:48.672Z,41.40
2018-05-07T17:35:17.924Z,42.30
2018-05-07T17:37:47.987Z,41.40
2018-05-07T17:40:17.267Z,41.40
2018-05-07T17:42:46.564Z,40.90
2018-05-07T17:48:38.686Z,40.80
2018-05-07T17:51:08.826Z,41.10
2018-05-07T17:53:38.143Z,41.10
2018-05-07T17:56:07.430Z,40.70
2018-05-07T17:58:36.718Z,40.70
2018-05-07T18:01:06.773Z,40.00
2018-05-07T18:03:36.077Z,40.00
2018-05-07T18:06:05.395Z,39.80
2018-05-07T18:08:34.751Z,39.90
2018-05-07T18:11:04.070Z,40.50
2018-05-07T18:13:34.206Z,40.10
2018-05-07T18:16:03.606Z,40.20
2018-05-07T18:18:32.927Z,40.10
2018-05-07T18:21:02.216Z,40.50
2018-05-07T18:23:32.700Z,40.30
2018-05-07T18:26:03.016Z,40.30
2018-05-07T18:28:33.090Z,40.50
2018-05-07T18:31:02.851Z,40.40
2018-05-07T18:33:32.154Z,40.00
2018-05-07T18:36:01.442Z,40.00
2018-05-07T18:38:31.736Z,39.80
2018-05-07T18:41:01.005Z,39.90
2018-05-07T18:43:30.308Z,40.00
2018-05-07T18:45:59.606Z,39.80
2018-05-07T18:48:28.898Z,40.10
2018-05-07T18:50:58.201Z,40.30
2018-05-07T18:53:27.489Z,40.30
2018-05-07T18:55:57.047Z,40.60
2018-05-07T18:58:26.321Z,40.80
2018-05-07T19:00:55.636Z,41.10
2018-05-07T19:03:24.924Z,41.30
2018-05-07T19:05:54.254Z,41.70
2018-05-07T19:08:23.539Z,41.90
2018-05-07T19:10:52.834Z,42.10
2018-05-07T19:13:22.120Z,43.20
2018-05-07T19:15:51.413Z,42.50
2018-05-07T19:18:21.209Z,43.20
2018-05-07T19:20:50.577Z,44.50
2018-05-07T19:23:19.881Z,45.00
2018-05-07T19:25:49.960Z,45.90
2018-05-07T19:28:19.253Z,45.80
2018-05-07T19:30:48.560Z,46.80
2018-05-07T19:33:18.833Z,46.60
2018-05-07T19:35:49.204Z,47.30
2018-05-07T19:38:18.508Z,47.20
2018-05-07T19:40:47.779Z,47.20
2018-05-07T19:43:17.084Z,48.00
2018-05-07T19:45:47.201Z,48.50
2018-05-07T19:48:17.339Z,49.20
2018-05-07T19:50:46.681Z,49.10
2018-05-07T19:53:16.088Z,49.50
2018-05-07T19:55:45.445Z,49.50
2018-05-07T19:58:14.688Z,50.00
2018-05-07T20:00:43.985Z,50.30
2018-05-07T20:03:13.514Z,50.40
2018-05-07T20:05:43.638Z,51.00
2018-05-07T20:08:12.933Z,51.00
2018-05-07T20:10:43.080Z,51.10
2018-05-07T20:13:12.829Z,51.00
2018-05-07T20:15:42.149Z,50.90
2018-05-07T20:18:11.458Z,50.90
2018-05-07T20:20:41.525Z,52.10
2018-05-07T20:23:10.830Z,52.00
2018-05-07T20:25:40.148Z,52.20
2018-05-07T20:28:09.431Z,52.10
2018-05-07T20:30:38.741Z,52.50
2018-05-07T20:33:08.102Z,52.70
2018-05-07T20:35:37.317Z,52.70
2018-05-07T20:38:06.650Z,52.60
2018-05-07T20:40:35.953Z,53.30
2018-05-07T20:43:05.264Z,53.70
2018-05-07T20:45:34.560Z,54.00
2018-05-07T20:48:03.915Z,53.60
2018-05-07T20:50:33.167Z,53.60
2018-05-07T20:53:02.480Z,53.60
2018-05-07T20:55:31.792Z,54.40
2018-05-07T20:58:01.086Z,54.90
2018-05-07T21:00:31.949Z,55.40
2018-05-07T21:03:01.250Z,54.70
2018-05-07T21:05:30.558Z,55.50
2018-05-07T21:07:59.849Z,55.90
2018-05-07T21:10:29.139Z,56.30
2018-05-07T21:12:58.462Z,56.60
2018-05-07T21:15:27.757Z,56.70
2018-05-07T21:17:57.997Z,56.30
2018-05-07T21:20:27.282Z,56.30
2018-05-07T21:22:56.602Z,56.10
2018-05-07T21:25:25.906Z,56.70
2018-05-07T21:27:55.204Z,57.70
2018-05-07T21:30:24.502Z,58.00
2018-05-07T21:32:53.804Z,58.30
2018-05-07T21:35:23.110Z,58.50
2018-05-07T21:37:52.417Z,58.40
2018-05-07T21:42:57.121Z,58.90
2018-05-07T21:45:27.185Z,59.40
2018-05-07T21:47:56.506Z,59.50
2018-05-07T21:50:25.799Z,59.30
2018-05-07T21:52:55.102Z,59.30
2018-05-07T21:55:24.441Z,59.90
2018-05-07T21:57:54.512Z,60.30
2018-05-07T22:00:23.807Z,60.30
2018-05-07T22:02:53.095Z,60.60
2018-05-07T22:05:22.406Z,61.60
2018-05-07T22:07:52.454Z,62.20
2018-05-07T22:10:22.872Z,62.20
2018-05-07T22:12:52.149Z,63.40
2018-05-07T22:15:21.435Z,62.50
2018-05-07T22:17:50.733Z,62.90
2018-05-07T22:20:20.031Z,64.70
2018-05-07T22:22:49.310Z,64.00
2018-05-07T22:25:18.630Z,64.00
2018-05-07T22:27:47.925Z,64.70
2018-05-07T22:30:17.209Z,64.50
2018-05-07T22:32:46.511Z,65.20
2018-05-07T22:35:15.801Z,65.20
2018-05-07T22:37:45.873Z,66.40
2018-05-07T22:40:15.181Z,66.40
2018-05-07T22:42:44.676Z,66.70
2018-05-07T22:45:14.990Z,66.80
2018-05-07T22:47:44.283Z,67.00
2018-05-07T22:50:13.596Z,67.60
2018-05-07T22:52:42.904Z,67.80
2018-05-07T22:55:21.749Z,68.20
2018-05-07T22:57:51.046Z,68.00
2018-05-07T23:00:20.323Z,68.60
2018-05-07T23:02:49.617Z,69.40
2018-05-07T23:05:18.914Z,69.80
2018-05-07T23:07:48.203Z,70.10
2018-05-07T23:10:17.533Z,69.40
2018-05-07T23:12:46.805Z,70.30
2018-05-07T23:15:16.085Z,71.10
2018-05-07T23:17:45.390Z,71.40
2018-05-07T23:20:14.667Z,71.60
2018-05-07T23:22:44.728Z,72.10
2018-05-07T23:25:14.014Z,72.10
2018-05-07T23:27:43.318Z,72.20
2018-05-07T23:30:12.599Z,72.50
2018-05-07T23:32:41.895Z,72.60
2018-05-07T23:35:11.961Z,72.20
2018-05-07T23:37:41.267Z,72.10
2018-05-07T23:40:10.555Z,72.40
2018-05-07T23:42:39.841Z,72.50
2018-05-07T23:45:09.124Z,73.20
2018-05-07T23:47:38.405Z,74.50
2018-05-07T23:50:07.707Z,74.00
2018-05-07T23:52:37.761Z,74.70
2018-05-07T23:55:07.089Z,74.50
2018-05-07T23:57:36.362Z,75.00
